sensor_id;sensor_type;location;lat;lon;timestamp;P1;durP1;ratioP1;P2;durP2;ratioP2
71639;SDS011;60912;48.968;10.124;2023-02-02T00:00:43;6.80;;;1.67;;
71639;SDS011;60912;48.968;10.124;2023-02-02T00:03:08;11.63;;;1.70;;
71639;SDS011;60912;48.968;10.124;2023-02-02T00:05:34;10.75;;;1.90;;
71639;SDS011;60912;48.968;10.124;2023-02-02T00:08:00;10.83;;;1.67;;
71639;SDS011;60912;48.968;10.124;2023-02-02T00:10:26;8.82;;;1.65;;
71639;SDS011;60912;48.968;10.124;2023-02-02T00:12:51;9.70;;;1.73;;
71639;SDS011;60912;48.968;10.124;2023-02-02T00:15:18;6.47;;;1.40;;
71639;SDS011;60912;48.968;10.124;2023-02-02T00:17:43;12.80;;;2.03;;
71639;SDS011;60912;48.968;10.124;2023-02-02T00:20:09;9.10;;;1.73;;
71639;SDS011;60912;48.968;10.124;2023-02-02T00:22:34;8.50;;;1.87;;
71639;SDS011;60912;48.968;10.124;2023-02-02T00:25:00;9.97;;;1.77;;
71639;SDS011;60912;48.968;10.124;2023-02-02T00:27:25;6.68;;;1.60;;
71639;SDS011;60912;48.968;10.124;2023-02-02T00:29:51;5.57;;;1.83;;
71639;SDS011;60912;48.968;10.124;2023-02-02T00:32:18;12.30;;;2.13;;
71639;SDS011;60912;48.968;10.124;2023-02-02T00:34:44;13.43;;;1.73;;
71639;SDS011;60912;48.968;10.124;2023-02-02T00:37:09;9.13;;;1.97;;
71639;SDS011;60912;48.968;10.124;2023-02-02T00:39:34;8.43;;;1.70;;
71639;SDS011;60912;48.968;10.124;2023-02-02T00:42:00;10.37;;;2.30;;
71639;SDS011;60912;48.968;10.124;2023-02-02T00:44:25;17.38;;;2.97;;
71639;SDS011;60912;48.968;10.124;2023-02-02T00:47:09;9.60;;;1.93;;
71639;SDS011;60912;48.968;10.124;2023-02-02T00:49:35;10.82;;;1.90;;
71639;SDS011;60912;48.968;10.124;2023-02-02T00:52:00;10.00;;;2.00;;
71639;SDS011;60912;48.968;10.124;2023-02-02T00:54:26;9.37;;;2.20;;
71639;SDS011;60912;48.968;10.124;2023-02-02T00:56:51;10.32;;;2.17;;
71639;SDS011;60912;48.968;10.124;2023-02-02T00:59:17;7.63;;;2.00;;
71639;SDS011;60912;48.968;10.124;2023-02-02T01:01:42;8.50;;;2.13;;
71639;SDS011;60912;48.968;10.124;2023-02-02T01:04:07;13.53;;;2.53;;
71639;SDS011;60912;48.968;10.124;2023-02-02T01:06:33;9.25;;;2.28;;
71639;SDS011;60912;48.968;10.124;2023-02-02T01:08:58;10.77;;;2.33;;
71639;SDS011;60912;48.968;10.124;2023-02-02T01:11:24;9.80;;;1.93;;
71639;SDS011;60912;48.968;10.124;2023-02-02T01:13:50;12.75;;;2.33;;
71639;SDS011;60912;48.968;10.124;2023-02-02T01:16:15;8.00;;;2.00;;
71639;SDS011;60912;48.968;10.124;2023-02-02T01:18:41;11.38;;;2.33;;
71639;SDS011;60912;48.968;10.124;2023-02-02T01:21:08;11.00;;;1.95;;
71639;SDS011;60912;48.968;10.124;2023-02-02T01:23:35;11.03;;;2.00;;
71639;SDS011;60912;48.968;10.124;2023-02-02T01:26:03;10.68;;;2.35;;
71639;SDS011;60912;48.968;10.124;2023-02-02T01:28:30;15.02;;;3.03;;
71639;SDS011;60912;48.968;10.124;2023-02-02T01:30:56;11.87;;;2.17;;
71639;SDS011;60912;48.968;10.124;2023-02-02T01:33:22;11.55;;;2.13;;
71639;SDS011;60912;48.968;10.124;2023-02-02T01:35:54;11.25;;;2.67;;
71639;SDS011;60912;48.968;10.124;2023-02-02T01:38:21;12.10;;;2.35;;
71639;SDS011;60912;48.968;10.124;2023-02-02T01:40:49;9.70;;;2.20;;
71639;SDS011;60912;48.968;10.124;2023-02-02T01:45:47;8.30;;;2.30;;
71639;SDS011;60912;48.968;10.124;2023-02-02T01:48:12;11.07;;;2.58;;
71639;SDS011;60912;48.968;10.124;2023-02-02T01:50:39;10.37;;;2.37;;
71639;SDS011;60912;48.968;10.124;2023-02-02T01:53:04;8.48;;;2.13;;
71639;SDS011;60912;48.968;10.124;2023-02-02T01:55:31;12.30;;;2.30;;
71639;SDS011;60912;48.968;10.124;2023-02-02T01:58:01;10.73;;;2.37;;
71639;SDS011;60912;48.968;10.124;2023-02-02T02:00:30;6.47;;;1.80;;
71639;SDS011;60912;48.968;10.124;2023-02-02T02:02:56;9.75;;;2.30;;
71639;SDS011;60912;48.968;10.124;2023-02-02T02:05:29;11.13;;;2.30;;
71639;SDS011;60912;48.968;10.124;2023-02-02T02:08:03;8.55;;;2.10;;
71639;SDS011;60912;48.968;10.124;2023-02-02T02:10:34;10.00;;;2.35;;
71639;SDS011;60912;48.968;10.124;2023-02-02T02:12:59;9.37;;;2.67;;
71639;SDS011;60912;48.968;10.124;2023-02-02T02:15:25;11.63;;;2.13;;
71639;SDS011;60912;48.968;10.124;2023-02-02T02:18:33;10.18;;;2.55;;
71639;SDS011;60912;48.968;10.124;2023-02-02T02:21:14;9.05;;;2.10;;
71639;SDS011;60912;48.968;10.124;2023-02-02T02:27:59;11.50;;;1.90;;
71639;SDS011;60912;48.968;10.124;2023-02-02T02:41:43;6.75;;;1.88;;
71639;SDS011;60912;48.968;10.124;2023-02-02T02:44:13;7.47;;;2.00;;
71639;SDS011;60912;48.968;10.124;2023-02-02T02:46:40;10.65;;;3.00;;
71639;SDS011;60912;48.968;10.124;2023-02-02T02:49:11;11.13;;;2.22;;
71639;SDS011;60912;48.968;10.124;2023-02-02T02:54:05;9.18;;;2.17;;
71639;SDS011;60912;48.968;10.124;2023-02-02T02:56:32;7.07;;;2.10;;
71639;SDS011;60912;48.968;10.124;2023-02-02T03:10:40;12.33;;;2.27;;
71639;SDS011;60912;48.968;10.124;2023-02-02T03:13:09;7.90;;;2.20;;
71639;SDS011;60912;48.968;10.124;2023-02-02T03:15:39;11.30;;;2.63;;
71639;SDS011;60912;48.968;10.124;2023-02-02T03:18:05;8.48;;;2.42;;
71639;SDS011;60912;48.968;10.124;2023-02-02T03:20:30;9.83;;;2.47;;
71639;SDS011;60912;48.968;10.124;2023-02-02T03:22:56;14.13;;;2.50;;
71639;SDS011;60912;48.968;10.124;2023-02-02T03:25:21;10.67;;;2.10;;
71639;SDS011;60912;48.968;10.124;2023-02-02T03:27:47;12.32;;;2.55;;
71639;SDS011;60912;48.968;10.124;2023-02-02T03:30:13;11.90;;;2.47;;
71639;SDS011;60912;48.968;10.124;2023-02-02T03:32:39;12.73;;;2.90;;
71639;SDS011;60912;48.968;10.124;2023-02-02T03:35:08;12.13;;;2.60;;
71639;SDS011;60912;48.968;10.124;2023-02-02T03:37:34;10.57;;;2.50;;
71639;SDS011;60912;48.968;10.124;2023-02-02T03:39:59;8.33;;;2.43;;
71639;SDS011;60912;48.968;10.124;2023-02-02T03:42:24;10.00;;;2.40;;
71639;SDS011;60912;48.968;10.124;2023-02-02T03:44:50;7.40;;;2.30;;
71639;SDS011;60912;48.968;10.124;2023-02-02T03:47:15;10.77;;;2.47;;
71639;SDS011;60912;48.968;10.124;2023-02-02T03:49:40;9.27;;;2.47;;
71639;SDS011;60912;48.968;10.124;2023-02-02T03:52:06;9.50;;;1.93;;
71639;SDS011;60912;48.968;10.124;2023-02-02T03:54:31;11.57;;;3.13;;
71639;SDS011;60912;48.968;10.124;2023-02-02T03:56:57;12.50;;;2.50;;
71639;SDS011;60912;48.968;10.124;2023-02-02T03:59:22;13.90;;;2.70;;
71639;SDS011;60912;48.968;10.124;2023-02-02T04:01:47;10.97;;;2.47;;
71639;SDS011;60912;48.968;10.124;2023-02-02T04:04:13;14.43;;;3.30;;
71639;SDS011;60912;48.968;10.124;2023-02-02T04:06:38;10.20;;;2.70;;
71639;SDS011;60912;48.968;10.124;2023-02-02T04:09:04;10.63;;;2.60;;
71639;SDS011;60912;48.968;10.124;2023-02-02T04:11:29;13.83;;;2.90;;
71639;SDS011;60912;48.968;10.124;2023-02-02T04:13:55;14.20;;;2.97;;
71639;SDS011;60912;48.968;10.124;2023-02-02T04:16:20;13.57;;;2.50;;
71639;SDS011;60912;48.968;10.124;2023-02-02T04:18:45;12.77;;;2.80;;
71639;SDS011;60912;48.968;10.124;2023-02-02T04:21:11;13.82;;;2.78;;
71639;SDS011;60912;48.968;10.124;2023-02-02T04:23:36;10.63;;;2.50;;
71639;SDS011;60912;48.968;10.124;2023-02-02T04:26:02;8.03;;;2.80;;
71639;SDS011;60912;48.968;10.124;2023-02-02T04:28:28;13.63;;;2.70;;
71639;SDS011;60912;48.968;10.124;2023-02-02T04:30:54;12.23;;;2.63;;
71639;SDS011;60912;48.968;10.124;2023-02-02T04:33:21;13.38;;;2.88;;
71639;SDS011;60912;48.968;10.124;2023-02-02T04:35:47;13.32;;;2.90;;
71639;SDS011;60912;48.968;10.124;2023-02-02T04:38:13;13.80;;;2.73;;
71639;SDS011;60912;48.968;10.124;2023-02-02T04:40:42;12.50;;;3.00;;
71639;SDS011;60912;48.968;10.124;2023-02-02T04:43:09;12.07;;;3.13;;
71639;SDS011;60912;48.968;10.124;2023-02-02T04:45:36;9.02;;;2.80;;
71639;SDS011;60912;48.968;10.124;2023-02-02T04:48:01;11.32;;;2.70;;
71639;SDS011;60912;48.968;10.124;2023-02-02T04:50:27;12.25;;;2.80;;
71639;SDS011;60912;48.968;10.124;2023-02-02T04:52:53;11.13;;;2.90;;
71639;SDS011;60912;48.968;10.124;2023-02-02T04:55:18;10.93;;;3.20;;
71639;SDS011;60912;48.968;10.124;2023-02-02T04:57:44;13.77;;;2.88;;
71639;SDS011;60912;48.968;10.124;2023-02-02T05:00:10;11.53;;;2.77;;
71639;SDS011;60912;48.968;10.124;2023-02-02T05:02:36;10.25;;;3.42;;
71639;SDS011;60912;48.968;10.124;2023-02-02T05:05:03;12.73;;;2.83;;
71639;SDS011;60912;48.968;10.124;2023-02-02T05:07:30;12.77;;;3.28;;
71639;SDS011;60912;48.968;10.124;2023-02-02T05:09:56;14.33;;;3.03;;
71639;SDS011;60912;48.968;10.124;2023-02-02T05:12:21;10.63;;;3.13;;
71639;SDS011;60912;48.968;10.124;2023-02-02T05:14:46;16.07;;;3.70;;
71639;SDS011;60912;48.968;10.124;2023-02-02T05:17:12;14.67;;;3.37;;
71639;SDS011;60912;48.968;10.124;2023-02-02T05:19:37;15.77;;;3.73;;
71639;SDS011;60912;48.968;10.124;2023-02-02T05:22:02;13.03;;;3.43;;
71639;SDS011;60912;48.968;10.124;2023-02-02T05:24:28;13.73;;;4.00;;
71639;SDS011;60912;48.968;10.124;2023-02-02T05:26:53;12.23;;;3.40;;
71639;SDS011;60912;48.968;10.124;2023-02-02T05:29:22;12.52;;;3.05;;
71639;SDS011;60912;48.968;10.124;2023-02-02T05:31:51;12.57;;;2.67;;
71639;SDS011;60912;48.968;10.124;2023-02-02T05:34:16;8.02;;;2.58;;
71639;SDS011;60912;48.968;10.124;2023-02-02T05:36:42;12.63;;;2.70;;
71639;SDS011;60912;48.968;10.124;2023-02-02T05:39:08;15.97;;;3.33;;
71639;SDS011;60912;48.968;10.124;2023-02-02T05:41:34;13.10;;;3.25;;
71639;SDS011;60912;48.968;10.124;2023-02-02T05:43:59;12.53;;;3.00;;
71639;SDS011;60912;48.968;10.124;2023-02-02T05:46:25;11.60;;;2.97;;
71639;SDS011;60912;48.968;10.124;2023-02-02T05:48:51;12.93;;;3.47;;
71639;SDS011;60912;48.968;10.124;2023-02-02T05:54:07;13.00;;;2.90;;
71639;SDS011;60912;48.968;10.124;2023-02-02T05:56:35;12.33;;;3.10;;
71639;SDS011;60912;48.968;10.124;2023-02-02T05:59:07;9.48;;;3.13;;
71639;SDS011;60912;48.968;10.124;2023-02-02T06:01:40;13.65;;;2.95;;
71639;SDS011;60912;48.968;10.124;2023-02-02T06:04:05;10.20;;;3.30;;
71639;SDS011;60912;48.968;10.124;2023-02-02T06:06:31;15.02;;;2.90;;
71639;SDS011;60912;48.968;10.124;2023-02-02T06:09:00;11.00;;;2.90;;
71639;SDS011;60912;48.968;10.124;2023-02-02T06:11:38;13.68;;;3.17;;
71639;SDS011;60912;48.968;10.124;2023-02-02T06:14:04;14.13;;;3.17;;
71639;SDS011;60912;48.968;10.124;2023-02-02T06:16:29;11.25;;;2.80;;
71639;SDS011;60912;48.968;10.124;2023-02-02T06:18:55;16.07;;;3.23;;
71639;SDS011;60912;48.968;10.124;2023-02-02T06:21:21;15.23;;;2.90;;
71639;SDS011;60912;48.968;10.124;2023-02-02T06:23:49;10.70;;;3.00;;
71639;SDS011;60912;48.968;10.124;2023-02-02T06:26:16;17.57;;;3.10;;
71639;SDS011;60912;48.968;10.124;2023-02-02T06:28:42;17.15;;;3.40;;
71639;SDS011;60912;48.968;10.124;2023-02-02T06:31:13;13.45;;;2.72;;
71639;SDS011;60912;48.968;10.124;2023-02-02T06:33:43;11.18;;;2.90;;
71639;SDS011;60912;48.968;10.124;2023-02-02T06:36:28;6.90;;;2.00;;
71639;SDS011;60912;48.968;10.124;2023-02-02T06:38:56;11.33;;;2.60;;
71639;SDS011;60912;48.968;10.124;2023-02-02T06:41:22;10.30;;;2.53;;
71639;SDS011;60912;48.968;10.124;2023-02-02T06:43:51;10.73;;;2.40;;
71639;SDS011;60912;48.968;10.124;2023-02-02T06:46:22;11.00;;;2.58;;
71639;SDS011;60912;48.968;10.124;2023-02-02T06:48:47;11.93;;;2.53;;
71639;SDS011;60912;48.968;10.124;2023-02-02T06:51:12;12.73;;;3.17;;
71639;SDS011;60912;48.968;10.124;2023-02-02T06:53:38;13.83;;;2.87;;
71639;SDS011;60912;48.968;10.124;2023-02-02T06:56:04;14.53;;;3.00;;
71639;SDS011;60912;48.968;10.124;2023-02-02T06:58:31;12.65;;;2.83;;
71639;SDS011;60912;48.968;10.124;2023-02-02T07:01:01;11.38;;;3.15;;
71639;SDS011;60912;48.968;10.124;2023-02-02T07:03:28;11.95;;;2.97;;
71639;SDS011;60912;48.968;10.124;2023-02-02T07:05:53;11.53;;;3.03;;
71639;SDS011;60912;48.968;10.124;2023-02-02T07:08:19;13.73;;;3.20;;
71639;SDS011;60912;48.968;10.124;2023-02-02T07:10:44;10.60;;;3.03;;
71639;SDS011;60912;48.968;10.124;2023-02-02T07:13:09;12.43;;;2.60;;
71639;SDS011;60912;48.968;10.124;2023-02-02T07:15:37;8.63;;;2.90;;
71639;SDS011;60912;48.968;10.124;2023-02-02T07:18:04;13.25;;;2.58;;
71639;SDS011;60912;48.968;10.124;2023-02-02T07:20:29;11.63;;;2.87;;
71639;SDS011;60912;48.968;10.124;2023-02-02T07:22:55;13.25;;;3.08;;
71639;SDS011;60912;48.968;10.124;2023-02-02T07:25:21;13.67;;;3.30;;
71639;SDS011;60912;48.968;10.124;2023-02-02T07:27:46;10.90;;;2.73;;
71639;SDS011;60912;48.968;10.124;2023-02-02T07:30:12;11.98;;;2.83;;
71639;SDS011;60912;48.968;10.124;2023-02-02T07:32:38;11.52;;;3.03;;
71639;SDS011;60912;48.968;10.124;2023-02-02T07:35:03;13.90;;;3.63;;
71639;SDS011;60912;48.968;10.124;2023-02-02T07:37:29;11.07;;;2.80;;
71639;SDS011;60912;48.968;10.124;2023-02-02T07:39:55;9.63;;;2.40;;
71639;SDS011;60912;48.968;10.124;2023-02-02T07:42:20;10.87;;;2.37;;
71639;SDS011;60912;48.968;10.124;2023-02-02T07:44:45;10.93;;;2.60;;
71639;SDS011;60912;48.968;10.124;2023-02-02T07:47:11;13.85;;;3.33;;
71639;SDS011;60912;48.968;10.124;2023-02-02T07:49:36;9.37;;;2.80;;
71639;SDS011;60912;48.968;10.124;2023-02-02T07:52:02;11.03;;;2.50;;
71639;SDS011;60912;48.968;10.124;2023-02-02T07:54:27;14.20;;;3.10;;
71639;SDS011;60912;48.968;10.124;2023-02-02T07:57:01;11.37;;;3.17;;
71639;SDS011;60912;48.968;10.124;2023-02-02T07:59:30;16.13;;;2.58;;
71639;SDS011;60912;48.968;10.124;2023-02-02T08:01:55;13.00;;;2.53;;
71639;SDS011;60912;48.968;10.124;2023-02-02T08:04:30;16.00;;;3.22;;
71639;SDS011;60912;48.968;10.124;2023-02-02T08:06:58;17.00;;;3.50;;
71639;SDS011;60912;48.968;10.124;2023-02-02T08:09:24;13.00;;;2.80;;
71639;SDS011;60912;48.968;10.124;2023-02-02T08:11:49;10.48;;;2.92;;
71639;SDS011;60912;48.968;10.124;2023-02-02T08:14:15;8.67;;;2.50;;
71639;SDS011;60912;48.968;10.124;2023-02-02T08:16:40;10.23;;;2.73;;
71639;SDS011;60912;48.968;10.124;2023-02-02T08:19:06;9.80;;;2.77;;
71639;SDS011;60912;48.968;10.124;2023-02-02T08:21:32;10.90;;;2.80;;
71639;SDS011;60912;48.968;10.124;2023-02-02T08:23:59;13.97;;;3.27;;
71639;SDS011;60912;48.968;10.124;2023-02-02T08:26:28;11.50;;;2.72;;
71639;SDS011;60912;48.968;10.124;2023-02-02T08:29:05;11.35;;;2.75;;
71639;SDS011;60912;48.968;10.124;2023-02-02T08:31:36;8.57;;;2.53;;
71639;SDS011;60912;48.968;10.124;2023-02-02T08:34:05;13.45;;;3.00;;
71639;SDS011;60912;48.968;10.124;2023-02-02T08:36:31;12.33;;;2.57;;
71639;SDS011;60912;48.968;10.124;2023-02-02T08:39:04;9.93;;;2.83;;
71639;SDS011;60912;48.968;10.124;2023-02-02T08:41:31;10.32;;;2.67;;
71639;SDS011;60912;48.968;10.124;2023-02-02T08:43:57;13.32;;;3.10;;
71639;SDS011;60912;48.968;10.124;2023-02-02T08:46:23;10.13;;;2.60;;
71639;SDS011;60912;48.968;10.124;2023-02-02T08:48:48;11.90;;;3.33;;
71639;SDS011;60912;48.968;10.124;2023-02-02T08:51:15;12.75;;;3.13;;
71639;SDS011;60912;48.968;10.124;2023-02-02T08:53:43;8.43;;;2.50;;
71639;SDS011;60912;48.968;10.124;2023-02-02T08:56:10;13.27;;;2.40;;
71639;SDS011;60912;48.968;10.124;2023-02-02T08:58:38;6.93;;;2.30;;
71639;SDS011;60912;48.968;10.124;2023-02-02T09:03:31;11.60;;;2.60;;
71639;SDS011;60912;48.968;10.124;2023-02-02T09:05:56;9.27;;;2.47;;
71639;SDS011;60912;48.968;10.124;2023-02-02T09:08:22;8.40;;;2.40;;
71639;SDS011;60912;48.968;10.124;2023-02-02T09:10:53;10.95;;;2.30;;
71639;SDS011;60912;48.968;10.124;2023-02-02T09:13:19;15.07;;;2.97;;
71639;SDS011;60912;48.968;10.124;2023-02-02T09:15:46;8.02;;;2.58;;
71639;SDS011;60912;48.968;10.124;2023-02-02T09:18:12;8.10;;;2.20;;
71639;SDS011;60912;48.968;10.124;2023-02-02T09:20:37;10.13;;;2.13;;
71639;SDS011;60912;48.968;10.124;2023-02-02T09:23:03;8.00;;;2.20;;
71639;SDS011;60912;48.968;10.124;2023-02-02T09:25:28;9.23;;;2.33;;
71639;SDS011;60912;48.968;10.124;2023-02-02T09:27:54;11.60;;;2.85;;
71639;SDS011;60912;48.968;10.124;2023-02-02T09:30:19;11.03;;;2.50;;
71639;SDS011;60912;48.968;10.124;2023-02-02T09:32:47;8.57;;;2.50;;
71639;SDS011;60912;48.968;10.124;2023-02-02T09:35:16;9.50;;;2.72;;
71639;SDS011;60912;48.968;10.124;2023-02-02T09:37:41;8.77;;;2.33;;
71639;SDS011;60912;48.968;10.124;2023-02-02T09:40:12;9.18;;;2.72;;
71639;SDS011;60912;48.968;10.124;2023-02-02T09:42:57;7.60;;;2.13;;
71639;SDS011;60912;48.968;10.124;2023-02-02T09:45:26;6.65;;;2.40;;
71639;SDS011;60912;48.968;10.124;2023-02-02T09:51:00;16.90;;;3.43;;
71639;SDS011;60912;48.968;10.124;2023-02-02T09:56:05;17.85;;;3.28;;
71639;SDS011;60912;48.968;10.124;2023-02-02T09:58:38;13.10;;;2.92;;
71639;SDS011;60912;48.968;10.124;2023-02-02T10:01:21;13.57;;;3.50;;
71639;SDS011;60912;48.968;10.124;2023-02-02T10:06:39;9.75;;;2.55;;
71639;SDS011;60912;48.968;10.124;2023-02-02T10:19:45;8.07;;;2.17;;
71639;SDS011;60912;48.968;10.124;2023-02-02T10:22:13;13.73;;;3.65;;
71639;SDS011;60912;48.968;10.124;2023-02-02T10:24:43;10.63;;;2.65;;
71639;SDS011;60912;48.968;10.124;2023-02-02T10:27:15;16.60;;;3.70;;
71639;SDS011;60912;48.968;10.124;2023-02-02T10:29:52;12.77;;;3.50;;
71639;SDS011;60912;48.968;10.124;2023-02-02T10:32:27;11.23;;;3.00;;
71639;SDS011;60912;48.968;10.124;2023-02-02T10:45:52;15.73;;;3.63;;
71639;SDS011;60912;48.968;10.124;2023-02-02T10:48:21;11.80;;;3.63;;
71639;SDS011;60912;48.968;10.124;2023-02-02T10:50:53;13.93;;;3.83;;
71639;SDS011;60912;48.968;10.124;2023-02-02T10:53:21;13.23;;;3.85;;
71639;SDS011;60912;48.968;10.124;2023-02-02T10:55:57;15.68;;;3.28;;
71639;SDS011;60912;48.968;10.124;2023-02-02T10:58:31;14.10;;;3.33;;
71639;SDS011;60912;48.968;10.124;2023-02-02T11:01:03;11.80;;;3.30;;
71639;SDS011;60912;48.968;10.124;2023-02-02T11:03:31;12.73;;;3.40;;
71639;SDS011;60912;48.968;10.124;2023-02-02T11:05:59;12.23;;;3.45;;
71639;SDS011;60912;48.968;10.124;2023-02-02T11:09:00;11.75;;;3.10;;
71639;SDS011;60912;48.968;10.124;2023-02-02T11:11:38;11.82;;;3.00;;
71639;SDS011;60912;48.968;10.124;2023-02-02T11:17:23;15.40;;;3.95;;
71639;SDS011;60912;48.968;10.124;2023-02-02T11:19:52;14.82;;;3.42;;
71639;SDS011;60912;48.968;10.124;2023-02-02T11:24:50;7.90;;;2.58;;
71639;SDS011;60912;48.968;10.124;2023-02-02T11:27:27;13.90;;;3.53;;
71639;SDS011;60912;48.968;10.124;2023-02-02T11:30:20;13.85;;;3.28;;
71639;SDS011;60912;48.968;10.124;2023-02-02T11:32:51;12.48;;;3.10;;
71639;SDS011;60912;48.968;10.124;2023-02-02T11:37:57;11.95;;;3.13;;
71639;SDS011;60912;48.968;10.124;2023-02-02T11:40:34;11.30;;;2.93;;
71639;SDS011;60912;48.968;10.124;2023-02-02T11:43:13;14.77;;;3.40;;
71639;SDS011;60912;48.968;10.124;2023-02-02T11:45:42;10.27;;;3.17;;
71639;SDS011;60912;48.968;10.124;2023-02-02T11:48:17;11.25;;;3.20;;
71639;SDS011;60912;48.968;10.124;2023-02-02T11:50:46;10.20;;;3.10;;
71639;SDS011;60912;48.968;10.124;2023-02-02T11:53:25;10.77;;;2.97;;
71639;SDS011;60912;48.968;10.124;2023-02-02T11:56:16;9.95;;;2.65;;
71639;SDS011;60912;48.968;10.124;2023-02-02T11:58:59;8.85;;;2.95;;
71639;SDS011;60912;48.968;10.124;2023-02-02T12:01:29;11.10;;;2.80;;
71639;SDS011;60912;48.968;10.124;2023-02-02T12:03:55;8.13;;;2.20;;
71639;SDS011;60912;48.968;10.124;2023-02-02T12:06:24;9.73;;;2.30;;
71639;SDS011;60912;48.968;10.124;2023-02-02T12:08:52;6.25;;;2.05;;
71639;SDS011;60912;48.968;10.124;2023-02-02T12:27:47;7.38;;;2.13;;
71639;SDS011;60912;48.968;10.124;2023-02-02T12:32:49;6.43;;;1.80;;
71639;SDS011;60912;48.968;10.124;2023-02-02T12:35:47;6.20;;;1.70;;
71639;SDS011;60912;48.968;10.124;2023-02-02T12:38:17;8.00;;;2.00;;
71639;SDS011;60912;48.968;10.124;2023-02-02T12:43:26;8.03;;;2.07;;
71639;SDS011;60912;48.968;10.124;2023-02-02T13:05:23;6.03;;;2.00;;
71639;SDS011;60912;48.968;10.124;2023-02-02T13:08:01;6.65;;;1.90;;
71639;SDS011;60912;48.968;10.124;2023-02-02T13:10:38;4.80;;;1.40;;
71639;SDS011;60912;48.968;10.124;2023-02-02T13:15:50;6.17;;;1.43;;
71639;SDS011;60912;48.968;10.124;2023-02-02T13:18:20;6.28;;;1.80;;
71639;SDS011;60912;48.968;10.124;2023-02-02T13:20:51;6.82;;;1.50;;
71639;SDS011;60912;48.968;10.124;2023-02-02T13:23:21;6.20;;;1.60;;
71639;SDS011;60912;48.968;10.124;2023-02-02T13:25:54;5.75;;;1.60;;
71639;SDS011;60912;48.968;10.124;2023-02-02T13:28:29;6.50;;;1.70;;
71639;SDS011;60912;48.968;10.124;2023-02-02T13:31:01;8.40;;;1.58;;
71639;SDS011;60912;48.968;10.124;2023-02-02T13:33:31;5.45;;;1.60;;
71639;SDS011;60912;48.968;10.124;2023-02-02T13:36:00;5.93;;;1.40;;
71639;SDS011;60912;48.968;10.124;2023-02-02T13:38:29;10.07;;;2.17;;
71639;SDS011;60912;48.968;10.124;2023-02-02T13:41:13;7.93;;;1.60;;
71639;SDS011;60912;48.968;10.124;2023-02-02T13:49:29;6.50;;;1.70;;
71639;SDS011;60912;48.968;10.124;2023-02-02T14:05:26;6.18;;;2.08;;
71639;SDS011;60912;48.968;10.124;2023-02-02T14:07:56;7.68;;;2.17;;
71639;SDS011;60912;48.968;10.124;2023-02-02T14:13:18;10.70;;;2.57;;
71639;SDS011;60912;48.968;10.124;2023-02-02T14:16:07;9.95;;;2.60;;
71639;SDS011;60912;48.968;10.124;2023-02-02T14:18:51;14.88;;;2.92;;
71639;SDS011;60912;48.968;10.124;2023-02-02T14:26:41;6.73;;;2.80;;
71639;SDS011;60912;48.968;10.124;2023-02-02T14:34:58;10.82;;;3.40;;
71639;SDS011;60912;48.968;10.124;2023-02-02T14:45:45;7.97;;;2.72;;
71639;SDS011;60912;48.968;10.124;2023-02-02T14:48:22;7.87;;;2.50;;
71639;SDS011;60912;48.968;10.124;2023-02-02T14:50:56;9.98;;;2.88;;
71639;SDS011;60912;48.968;10.124;2023-02-02T14:59:27;9.85;;;2.85;;
71639;SDS011;60912;48.968;10.124;2023-02-02T15:02:22;11.07;;;3.20;;
71639;SDS011;60912;48.968;10.124;2023-02-02T15:08:26;7.20;;;2.83;;
71639;SDS011;60912;48.968;10.124;2023-02-02T15:10:59;8.68;;;2.55;;
71639;SDS011;60912;48.968;10.124;2023-02-02T15:13:51;13.57;;;3.13;;
71639;SDS011;60912;48.968;10.124;2023-02-02T15:16:28;8.67;;;2.97;;
71639;SDS011;60912;48.968;10.124;2023-02-02T15:19:10;10.52;;;2.42;;
71639;SDS011;60912;48.968;10.124;2023-02-02T15:21:40;9.50;;;2.60;;
71639;SDS011;60912;48.968;10.124;2023-02-02T15:24:15;6.22;;;2.22;;
71639;SDS011;60912;48.968;10.124;2023-02-02T15:26:46;8.70;;;2.67;;
71639;SDS011;60912;48.968;10.124;2023-02-02T15:29:39;10.27;;;2.90;;
71639;SDS011;60912;48.968;10.124;2023-02-02T15:32:13;8.80;;;3.10;;
71639;SDS011;60912;48.968;10.124;2023-02-02T15:34:53;10.50;;;3.53;;
71639;SDS011;60912;48.968;10.124;2023-02-02T15:37:29;8.48;;;2.67;;
71639;SDS011;60912;48.968;10.124;2023-02-02T15:43:11;10.37;;;3.27;;
71639;SDS011;60912;48.968;10.124;2023-02-02T15:45:47;8.07;;;2.38;;
71639;SDS011;60912;48.968;10.124;2023-02-02T15:48:26;9.77;;;3.13;;
71639;SDS011;60912;48.968;10.124;2023-02-02T15:50:58;10.75;;;2.90;;
71639;SDS011;60912;48.968;10.124;2023-02-02T15:53:47;9.88;;;3.20;;
71639;SDS011;60912;48.968;10.124;2023-02-02T15:58:49;9.95;;;2.85;;
71639;SDS011;60912;48.968;10.124;2023-02-02T16:01:17;7.93;;;2.60;;
71639;SDS011;60912;48.968;10.124;2023-02-02T16:06:44;12.55;;;3.38;;
71639;SDS011;60912;48.968;10.124;2023-02-02T16:09:15;9.47;;;2.93;;
71639;SDS011;60912;48.968;10.124;2023-02-02T16:11:50;17.25;;;3.30;;
71639;SDS011;60912;48.968;10.124;2023-02-02T16:14:16;22.38;;;4.03;;
71639;SDS011;60912;48.968;10.124;2023-02-02T16:16:42;19.85;;;4.80;;
71639;SDS011;60912;48.968;10.124;2023-02-02T16:24:13;11.43;;;3.30;;
71639;SDS011;60912;48.968;10.124;2023-02-02T16:26:41;10.02;;;2.85;;
71639;SDS011;60912;48.968;10.124;2023-02-02T16:29:08;13.07;;;3.03;;
71639;SDS011;60912;48.968;10.124;2023-02-02T16:31:41;9.75;;;2.80;;
71639;SDS011;60912;48.968;10.124;2023-02-02T16:34:13;13.13;;;2.90;;
71639;SDS011;60912;48.968;10.124;2023-02-02T16:40:13;11.27;;;3.60;;
71639;SDS011;60912;48.968;10.124;2023-02-02T16:43:04;14.57;;;3.08;;
71639;SDS011;60912;48.968;10.124;2023-02-02T16:48:34;11.07;;;3.10;;
71639;SDS011;60912;48.968;10.124;2023-02-02T16:51:03;10.60;;;3.10;;
71639;SDS011;60912;48.968;10.124;2023-02-02T17:00:25;15.90;;;3.55;;
71639;SDS011;60912;48.968;10.124;2023-02-02T17:03:21;12.02;;;2.90;;
71639;SDS011;60912;48.968;10.124;2023-02-02T17:05:57;7.30;;;2.75;;
71639;SDS011;60912;48.968;10.124;2023-02-02T17:08:28;8.47;;;3.03;;
71639;SDS011;60912;48.968;10.124;2023-02-02T17:14:58;11.35;;;3.10;;
71639;SDS011;60912;48.968;10.124;2023-02-02T17:17:47;11.65;;;3.15;;
71639;SDS011;60912;48.968;10.124;2023-02-02T17:20:16;8.73;;;2.70;;
71639;SDS011;60912;48.968;10.124;2023-02-02T17:22:43;7.63;;;3.33;;
71639;SDS011;60912;48.968;10.124;2023-02-02T17:25:34;11.20;;;3.00;;
71639;SDS011;60912;48.968;10.124;2023-02-02T17:28:05;10.73;;;2.67;;
71639;SDS011;60912;48.968;10.124;2023-02-02T17:30:38;8.50;;;2.72;;
71639;SDS011;60912;48.968;10.124;2023-02-02T17:33:07;8.82;;;2.85;;
71639;SDS011;60912;48.968;10.124;2023-02-02T17:35:35;9.20;;;3.00;;
71639;SDS011;60912;48.968;10.124;2023-02-02T17:38:01;9.48;;;3.00;;
71639;SDS011;60912;48.968;10.124;2023-02-02T17:40:42;10.25;;;2.75;;
71639;SDS011;60912;48.968;10.124;2023-02-02T17:43:15;8.00;;;3.00;;
71639;SDS011;60912;48.968;10.124;2023-02-02T17:45:41;12.32;;;3.00;;
71639;SDS011;60912;48.968;10.124;2023-02-02T17:48:08;8.33;;;2.70;;
71639;SDS011;60912;48.968;10.124;2023-02-02T17:50:36;9.75;;;2.90;;
71639;SDS011;60912;48.968;10.124;2023-02-02T17:53:02;9.00;;;2.70;;
71639;SDS011;60912;48.968;10.124;2023-02-02T17:55:31;8.97;;;2.63;;
71639;SDS011;60912;48.968;10.124;2023-02-02T17:58:02;9.63;;;2.80;;
71639;SDS011;60912;48.968;10.124;2023-02-02T18:00:27;8.27;;;2.80;;